sensor_id;sensor_type;location;lat;lon;timestamp;P1;durP1;ratioP1;P2;durP2;ratioP2
6394;SDS011;3230;42.588;23.358;2023-04-24T00:02:20;10.03;;;6.07;;
6394;SDS011;3230;42.588;23.358;2023-04-24T00:04:45;10.00;;;5.57;;
6394;SDS011;3230;42.588;23.358;2023-04-24T00:07:11;6.80;;;4.87;;
6394;SDS011;3230;42.588;23.358;2023-04-24T00:09:38;7.43;;;4.90;;
6394;SDS011;3230;42.588;23.358;2023-04-24T00:12:03;6.40;;;5.20;;
6394;SDS011;3230;42.588;23.358;2023-04-24T00:14:30;9.80;;;5.90;;
6394;SDS011;3230;42.588;23.358;2023-04-24T00:16:56;6.87;;;5.40;;
6394;SDS011;3230;42.588;23.358;2023-04-24T00:19:21;8.83;;;5.60;;
6394;SDS011;3230;42.588;23.358;2023-04-24T00:21:47;9.37;;;7.13;;
6394;SDS011;3230;42.588;23.358;2023-04-24T00:24:15;12.40;;;7.63;;
6394;SDS011;3230;42.588;23.358;2023-04-24T00:26:41;9.13;;;6.30;;
6394;SDS011;3230;42.588;23.358;2023-04-24T00:29:07;9.03;;;5.80;;
6394;SDS011;3230;42.588;23.358;2023-04-24T00:31:32;8.83;;;5.87;;
6394;SDS011;3230;42.588;23.358;2023-04-24T00:33:59;6.80;;;5.50;;
6394;SDS011;3230;42.588;23.358;2023-04-24T00:36:26;7.60;;;6.03;;
6394;SDS011;3230;42.588;23.358;2023-04-24T00:38:52;8.40;;;6.10;;
6394;SDS011;3230;42.588;23.358;2023-04-24T00:41:18;7.50;;;5.60;;
6394;SDS011;3230;42.588;23.358;2023-04-24T00:43:44;9.23;;;5.17;;
6394;SDS011;3230;42.588;23.358;2023-04-24T00:46:10;6.23;;;5.20;;
6394;SDS011;3230;42.588;23.358;2023-04-24T00:48:36;7.10;;;5.40;;
6394;SDS011;3230;42.588;23.358;2023-04-24T00:51:03;6.40;;;5.10;;
6394;SDS011;3230;42.588;23.358;2023-04-24T00:53:29;10.57;;;7.20;;
6394;SDS011;3230;42.588;23.358;2023-04-24T00:55:54;6.90;;;5.13;;
6394;SDS011;3230;42.588;23.358;2023-04-24T00:58:20;6.87;;;4.77;;
6394;SDS011;3230;42.588;23.358;2023-04-24T01:00:46;7.87;;;5.50;;
6394;SDS011;3230;42.588;23.358;2023-04-24T01:03:14;8.20;;;5.07;;
6394;SDS011;3230;42.588;23.358;2023-04-24T01:05:40;7.00;;;5.20;;
6394;SDS011;3230;42.588;23.358;2023-04-24T01:08:06;12.20;;;5.30;;
6394;SDS011;3230;42.588;23.358;2023-04-24T01:10:32;10.60;;;5.00;;
6394;SDS011;3230;42.588;23.358;2023-04-24T01:12:59;7.23;;;5.40;;
6394;SDS011;3230;42.588;23.358;2023-04-24T01:15:25;11.47;;;6.60;;
6394;SDS011;3230;42.588;23.358;2023-04-24T01:17:51;10.90;;;6.60;;
6394;SDS011;3230;42.588;23.358;2023-04-24T01:20:16;7.93;;;5.43;;
6394;SDS011;3230;42.588;23.358;2023-04-24T01:22:42;11.03;;;5.80;;
6394;SDS011;3230;42.588;23.358;2023-04-24T01:25:08;9.27;;;5.90;;
6394;SDS011;3230;42.588;23.358;2023-04-24T01:27:33;10.07;;;5.50;;
6394;SDS011;3230;42.588;23.358;2023-04-24T01:29:59;9.43;;;6.00;;
6394;SDS011;3230;42.588;23.358;2023-04-24T01:32:25;10.50;;;6.93;;
6394;SDS011;3230;42.588;23.358;2023-04-24T01:34:51;12.10;;;8.03;;
6394;SDS011;3230;42.588;23.358;2023-04-24T01:37:17;12.30;;;6.90;;
6394;SDS011;3230;42.588;23.358;2023-04-24T01:39:43;8.17;;;6.07;;
6394;SDS011;3230;42.588;23.358;2023-04-24T01:42:08;9.33;;;6.57;;
6394;SDS011;3230;42.588;23.358;2023-04-24T01:44:34;9.33;;;6.60;;
6394;SDS011;3230;42.588;23.358;2023-04-24T01:47:00;7.07;;;5.70;;
6394;SDS011;3230;42.588;23.358;2023-04-24T01:49:26;9.40;;;6.23;;
6394;SDS011;3230;42.588;23.358;2023-04-24T01:51:52;8.70;;;6.37;;
6394;SDS011;3230;42.588;23.358;2023-04-24T01:54:17;17.37;;;10.47;;
6394;SDS011;3230;42.588;23.358;2023-04-24T01:56:43;10.20;;;6.97;;
6394;SDS011;3230;42.588;23.358;2023-04-24T01:59:09;7.30;;;5.40;;
6394;SDS011;3230;42.588;23.358;2023-04-24T02:01:36;23.13;;;13.30;;
6394;SDS011;3230;42.588;23.358;2023-04-24T02:04:02;16.30;;;10.57;;
6394;SDS011;3230;42.588;23.358;2023-04-24T02:06:28;8.77;;;6.10;;
6394;SDS011;3230;42.588;23.358;2023-04-24T02:08:56;8.20;;;6.53;;
6394;SDS011;3230;42.588;23.358;2023-04-24T02:11:21;7.67;;;5.80;;
6394;SDS011;3230;42.588;23.358;2023-04-24T02:13:47;9.80;;;6.40;;
6394;SDS011;3230;42.588;23.358;2023-04-24T02:16:12;8.90;;;6.03;;
6394;SDS011;3230;42.588;23.358;2023-04-24T02:18:37;10.00;;;6.70;;
6394;SDS011;3230;42.588;23.358;2023-04-24T02:21:03;8.70;;;6.57;;
6394;SDS011;3230;42.588;23.358;2023-04-24T02:23:28;9.37;;;6.13;;
6394;SDS011;3230;42.588;23.358;2023-04-24T02:25:53;10.03;;;6.20;;
6394;SDS011;3230;42.588;23.358;2023-04-24T02:28:19;10.50;;;7.30;;
6394;SDS011;3230;42.588;23.358;2023-04-24T02:30:44;10.13;;;7.73;;
6394;SDS011;3230;42.588;23.358;2023-04-24T02:33:11;10.37;;;7.63;;
6394;SDS011;3230;42.588;23.358;2023-04-24T02:35:37;12.33;;;7.97;;
6394;SDS011;3230;42.588;23.358;2023-04-24T02:38:03;14.10;;;8.40;;
6394;SDS011;3230;42.588;23.358;2023-04-24T02:40:29;16.37;;;8.40;;
6394;SDS011;3230;42.588;23.358;2023-04-24T02:42:55;12.37;;;8.30;;
6394;SDS011;3230;42.588;23.358;2023-04-24T02:45:20;11.27;;;7.50;;
6394;SDS011;3230;42.588;23.358;2023-04-24T02:47:46;11.63;;;7.77;;
6394;SDS011;3230;42.588;23.358;2023-04-24T02:50:11;13.50;;;8.47;;
6394;SDS011;3230;42.588;23.358;2023-04-24T02:52:37;13.97;;;8.50;;
6394;SDS011;3230;42.588;23.358;2023-04-24T02:55:02;18.90;;;8.00;;
6394;SDS011;3230;42.588;23.358;2023-04-24T02:57:28;13.50;;;7.70;;
6394;SDS011;3230;42.588;23.358;2023-04-24T02:59:53;19.00;;;11.00;;
6394;SDS011;3230;42.588;23.358;2023-04-24T03:02:19;20.00;;;11.60;;
6394;SDS011;3230;42.588;23.358;2023-04-24T03:04:45;12.90;;;9.10;;
6394;SDS011;3230;42.588;23.358;2023-04-24T03:07:12;9.90;;;7.20;;
6394;SDS011;3230;42.588;23.358;2023-04-24T03:09:39;17.87;;;7.07;;
6394;SDS011;3230;42.588;23.358;2023-04-24T03:12:05;11.40;;;7.67;;
6394;SDS011;3230;42.588;23.358;2023-04-24T03:14:30;10.37;;;8.00;;
6394;SDS011;3230;42.588;23.358;2023-04-24T03:16:56;11.83;;;7.40;;
6394;SDS011;3230;42.588;23.358;2023-04-24T03:19:21;21.03;;;7.50;;
6394;SDS011;3230;42.588;23.358;2023-04-24T03:21:47;17.37;;;8.87;;
6394;SDS011;3230;42.588;23.358;2023-04-24T03:24:13;15.30;;;8.87;;
6394;SDS011;3230;42.588;23.358;2023-04-24T03:26:38;22.87;;;13.67;;
6394;SDS011;3230;42.588;23.358;2023-04-24T03:29:04;34.70;;;18.07;;
6394;SDS011;3230;42.588;23.358;2023-04-24T03:31:29;33.83;;;16.07;;
6394;SDS011;3230;42.588;23.358;2023-04-24T03:33:55;20.70;;;12.53;;
6394;SDS011;3230;42.588;23.358;2023-04-24T03:36:20;28.67;;;16.23;;
6394;SDS011;3230;42.588;23.358;2023-04-24T03:38:46;21.33;;;12.30;;
6394;SDS011;3230;42.588;23.358;2023-04-24T03:41:11;13.83;;;8.83;;
6394;SDS011;3230;42.588;23.358;2023-04-24T03:43:37;16.60;;;9.20;;
6394;SDS011;3230;42.588;23.358;2023-04-24T03:46:02;16.13;;;9.90;;
6394;SDS011;3230;42.588;23.358;2023-04-24T03:48:28;15.03;;;9.17;;
6394;SDS011;3230;42.588;23.358;2023-04-24T03:50:53;13.33;;;8.53;;
6394;SDS011;3230;42.588;23.358;2023-04-24T03:53:19;16.50;;;8.20;;
6394;SDS011;3230;42.588;23.358;2023-04-24T03:55:45;12.03;;;8.20;;
6394;SDS011;3230;42.588;23.358;2023-04-24T03:58:10;9.43;;;6.87;;
6394;SDS011;3230;42.588;23.358;2023-04-24T04:00:36;9.93;;;7.47;;
6394;SDS011;3230;42.588;23.358;2023-04-24T04:03:02;10.50;;;7.30;;
6394;SDS011;3230;42.588;23.358;2023-04-24T04:05:28;9.97;;;7.10;;
6394;SDS011;3230;42.588;23.358;2023-04-24T04:07:54;7.97;;;6.10;;
6394;SDS011;3230;42.588;23.358;2023-04-24T04:10:20;13.27;;;6.80;;
6394;SDS011;3230;42.588;23.358;2023-04-24T04:12:45;13.00;;;7.20;;
6394;SDS011;3230;42.588;23.358;2023-04-24T04:15:10;13.40;;;7.07;;
6394;SDS011;3230;42.588;23.358;2023-04-24T04:17:36;9.07;;;6.00;;
6394;SDS011;3230;42.588;23.358;2023-04-24T04:20:03;10.10;;;6.63;;
6394;SDS011;3230;42.588;23.358;2023-04-24T04:22:32;10.00;;;6.57;;
6394;SDS011;3230;42.588;23.358;2023-04-24T04:24:57;17.90;;;7.70;;
6394;SDS011;3230;42.588;23.358;2023-04-24T04:27:23;14.33;;;7.67;;
6394;SDS011;3230;42.588;23.358;2023-04-24T04:29:48;13.30;;;8.60;;
6394;SDS011;3230;42.588;23.358;2023-04-24T04:32:15;14.67;;;7.20;;
6394;SDS011;3230;42.588;23.358;2023-04-24T04:34:40;14.43;;;7.97;;
6394;SDS011;3230;42.588;23.358;2023-04-24T04:37:07;12.00;;;8.63;;
6394;SDS011;3230;42.588;23.358;2023-04-24T04:39:32;16.07;;;9.93;;
6394;SDS011;3230;42.588;23.358;2023-04-24T04:41:58;12.37;;;9.30;;
6394;SDS011;3230;42.588;23.358;2023-04-24T04:44:23;13.40;;;9.00;;
6394;SDS011;3230;42.588;23.358;2023-04-24T04:46:49;12.37;;;7.97;;
6394;SDS011;3230;42.588;23.358;2023-04-24T04:49:15;13.70;;;9.73;;
6394;SDS011;3230;42.588;23.358;2023-04-24T04:51:41;11.80;;;9.57;;
6394;SDS011;3230;42.588;23.358;2023-04-24T04:54:07;14.80;;;9.80;;
6394;SDS011;3230;42.588;23.358;2023-04-24T04:56:32;14.17;;;9.90;;
6394;SDS011;3230;42.588;23.358;2023-04-24T04:58:58;13.87;;;8.50;;
6394;SDS011;3230;42.588;23.358;2023-04-24T05:01:24;13.80;;;8.80;;
6394;SDS011;3230;42.588;23.358;2023-04-24T05:03:52;14.63;;;8.30;;
6394;SDS011;3230;42.588;23.358;2023-04-24T05:06:18;10.20;;;7.43;;
6394;SDS011;3230;42.588;23.358;2023-04-24T05:08:43;10.10;;;6.60;;
6394;SDS011;3230;42.588;23.358;2023-04-24T05:11:09;10.70;;;7.23;;
6394;SDS011;3230;42.588;23.358;2023-04-24T05:13:34;11.90;;;6.20;;
6394;SDS011;3230;42.588;23.358;2023-04-24T05:16:00;9.93;;;7.10;;
6394;SDS011;3230;42.588;23.358;2023-04-24T05:18:26;8.53;;;6.30;;
6394;SDS011;3230;42.588;23.358;2023-04-24T05:20:51;8.57;;;6.90;;
6394;SDS011;3230;42.588;23.358;2023-04-24T05:23:16;8.73;;;6.00;;
6394;SDS011;3230;42.588;23.358;2023-04-24T05:25:42;9.23;;;6.83;;
6394;SDS011;3230;42.588;23.358;2023-04-24T05:28:07;7.50;;;5.70;;
6394;SDS011;3230;42.588;23.358;2023-04-24T05:30:33;6.40;;;5.43;;
6394;SDS011;3230;42.588;23.358;2023-04-24T05:32:58;9.00;;;5.97;;
6394;SDS011;3230;42.588;23.358;2023-04-24T05:35:24;9.30;;;6.00;;
6394;SDS011;3230;42.588;23.358;2023-04-24T05:37:50;8.70;;;5.90;;
6394;SDS011;3230;42.588;23.358;2023-04-24T05:40:15;7.43;;;5.90;;
6394;SDS011;3230;42.588;23.358;2023-04-24T05:42:40;10.40;;;6.87;;
6394;SDS011;3230;42.588;23.358;2023-04-24T05:45:06;12.97;;;8.53;;
6394;SDS011;3230;42.588;23.358;2023-04-24T05:47:32;11.07;;;7.93;;
6394;SDS011;3230;42.588;23.358;2023-04-24T05:49:57;13.87;;;9.40;;
6394;SDS011;3230;42.588;23.358;2023-04-24T05:52:23;12.60;;;7.60;;
6394;SDS011;3230;42.588;23.358;2023-04-24T05:54:48;8.20;;;6.13;;
6394;SDS011;3230;42.588;23.358;2023-04-24T05:57:14;9.90;;;6.73;;
6394;SDS011;3230;42.588;23.358;2023-04-24T05:59:40;10.90;;;5.93;;
6394;SDS011;3230;42.588;23.358;2023-04-24T06:02:05;7.67;;;5.20;;
6394;SDS011;3230;42.588;23.358;2023-04-24T06:04:31;8.00;;;4.53;;
6394;SDS011;3230;42.588;23.358;2023-04-24T06:06:57;7.50;;;5.30;;
6394;SDS011;3230;42.588;23.358;2023-04-24T06:09:23;8.03;;;6.00;;
6394;SDS011;3230;42.588;23.358;2023-04-24T06:11:49;8.93;;;5.50;;
6394;SDS011;3230;42.588;23.358;2023-04-24T06:14:14;10.40;;;5.63;;
6394;SDS011;3230;42.588;23.358;2023-04-24T06:16:41;9.97;;;5.60;;
6394;SDS011;3230;42.588;23.358;2023-04-24T06:19:07;9.60;;;5.20;;
6394;SDS011;3230;42.588;23.358;2023-04-24T06:21:33;7.20;;;5.83;;
6394;SDS011;3230;42.588;23.358;2023-04-24T06:23:58;9.80;;;6.63;;
6394;SDS011;3230;42.588;23.358;2023-04-24T06:26:24;19.03;;;6.87;;
6394;SDS011;3230;42.588;23.358;2023-04-24T06:28:52;10.93;;;6.47;;
6394;SDS011;3230;42.588;23.358;2023-04-24T06:31:19;9.10;;;6.50;;
6394;SDS011;3230;42.588;23.358;2023-04-24T06:33:45;15.77;;;5.03;;
6394;SDS011;3230;42.588;23.358;2023-04-24T06:36:11;9.43;;;4.60;;
6394;SDS011;3230;42.588;23.358;2023-04-24T06:38:37;5.90;;;4.33;;
6394;SDS011;3230;42.588;23.358;2023-04-24T06:41:02;5.00;;;4.13;;
6394;SDS011;3230;42.588;23.358;2023-04-24T06:43:30;7.50;;;4.67;;
6394;SDS011;3230;42.588;23.358;2023-04-24T06:45:56;5.20;;;4.57;;
6394;SDS011;3230;42.588;23.358;2023-04-24T06:48:23;8.00;;;4.60;;
6394;SDS011;3230;42.588;23.358;2023-04-24T06:50:49;9.00;;;5.10;;
6394;SDS011;3230;42.588;23.358;2023-04-24T06:53:14;6.27;;;4.63;;
6394;SDS011;3230;42.588;23.358;2023-04-24T06:55:40;8.00;;;5.00;;
6394;SDS011;3230;42.588;23.358;2023-04-24T06:58:05;6.67;;;5.27;;
6394;SDS011;3230;42.588;23.358;2023-04-24T07:00:31;14.83;;;5.93;;
6394;SDS011;3230;42.588;23.358;2023-04-24T07:02:56;14.10;;;6.60;;
6394;SDS011;3230;42.588;23.358;2023-04-24T07:05:22;12.53;;;6.50;;
6394;SDS011;3230;42.588;23.358;2023-04-24T07:07:48;16.20;;;5.67;;
6394;SDS011;3230;42.588;23.358;2023-04-24T07:10:14;7.60;;;5.50;;
6394;SDS011;3230;42.588;23.358;2023-04-24T07:12:40;6.13;;;5.40;;
6394;SDS011;3230;42.588;23.358;2023-04-24T07:15:06;10.70;;;6.47;;
6394;SDS011;3230;42.588;23.358;2023-04-24T07:17:32;7.67;;;5.73;;
6394;SDS011;3230;42.588;23.358;2023-04-24T07:19:58;7.93;;;5.90;;
6394;SDS011;3230;42.588;23.358;2023-04-24T07:22:24;10.73;;;5.67;;
6394;SDS011;3230;42.588;23.358;2023-04-24T07:24:49;10.10;;;6.27;;
6394;SDS011;3230;42.588;23.358;2023-04-24T07:27:15;14.17;;;6.87;;
6394;SDS011;3230;42.588;23.358;2023-04-24T07:29:40;8.97;;;6.00;;
6394;SDS011;3230;42.588;23.358;2023-04-24T07:32:06;13.40;;;6.60;;
6394;SDS011;3230;42.588;23.358;2023-04-24T07:34:32;8.87;;;6.37;;
6394;SDS011;3230;42.588;23.358;2023-04-24T07:36:58;9.30;;;6.53;;
6394;SDS011;3230;42.588;23.358;2023-04-24T07:39:24;13.00;;;6.97;;
6394;SDS011;3230;42.588;23.358;2023-04-24T07:41:50;7.53;;;5.80;;
6394;SDS011;3230;42.588;23.358;2023-04-24T07:44:15;8.43;;;6.50;;
6394;SDS011;3230;42.588;23.358;2023-04-24T07:46:40;9.90;;;5.80;;
6394;SDS011;3230;42.588;23.358;2023-04-24T07:49:06;11.03;;;6.60;;
6394;SDS011;3230;42.588;23.358;2023-04-24T07:51:32;12.90;;;6.90;;
6394;SDS011;3230;42.588;23.358;2023-04-24T07:54:03;10.90;;;6.30;;
6394;SDS011;3230;42.588;23.358;2023-04-24T07:56:28;10.40;;;5.30;;
6394;SDS011;3230;42.588;23.358;2023-04-24T07:58:56;9.33;;;6.27;;
6394;SDS011;3230;42.588;23.358;2023-04-24T08:01:21;13.70;;;6.53;;
6394;SDS011;3230;42.588;23.358;2023-04-24T08:03:46;12.47;;;6.10;;
6394;SDS011;3230;42.588;23.358;2023-04-24T08:06:12;8.90;;;6.03;;
6394;SDS011;3230;42.588;23.358;2023-04-24T08:08:37;14.43;;;6.67;;
6394;SDS011;3230;42.588;23.358;2023-04-24T08:11:03;10.17;;;6.10;;
6394;SDS011;3230;42.588;23.358;2023-04-24T08:13:28;9.50;;;5.40;;
6394;SDS011;3230;42.588;23.358;2023-04-24T08:15:54;9.07;;;6.13;;
6394;SDS011;3230;42.588;23.358;2023-04-24T08:18:21;7.10;;;5.87;;
6394;SDS011;3230;42.588;23.358;2023-04-24T08:20:47;7.33;;;6.03;;
6394;SDS011;3230;42.588;23.358;2023-04-24T08:23:12;8.77;;;6.70;;
6394;SDS011;3230;42.588;23.358;2023-04-24T08:25:38;13.20;;;7.20;;
6394;SDS011;3230;42.588;23.358;2023-04-24T08:28:05;9.90;;;6.67;;
6394;SDS011;3230;42.588;23.358;2023-04-24T08:30:31;8.03;;;6.03;;
6394;SDS011;3230;42.588;23.358;2023-04-24T08:32:57;9.60;;;6.17;;
6394;SDS011;3230;42.588;23.358;2023-04-24T08:35:22;11.80;;;6.57;;
6394;SDS011;3230;42.588;23.358;2023-04-24T08:37:48;10.20;;;6.37;;
6394;SDS011;3230;42.588;23.358;2023-04-24T08:40:14;10.17;;;6.90;;
6394;SDS011;3230;42.588;23.358;2023-04-24T08:42:43;11.10;;;6.97;;
6394;SDS011;3230;42.588;23.358;2023-04-24T08:45:11;11.37;;;6.93;;
6394;SDS011;3230;42.588;23.358;2023-04-24T08:47:38;12.23;;;6.50;;
6394;SDS011;3230;42.588;23.358;2023-04-24T08:50:04;10.70;;;6.37;;
6394;SDS011;3230;42.588;23.358;2023-04-24T08:52:32;8.80;;;6.30;;
6394;SDS011;3230;42.588;23.358;2023-04-24T08:54:59;16.13;;;5.53;;
6394;SDS011;3230;42.588;23.358;2023-04-24T08:57:26;6.90;;;5.67;;
6394;SDS011;3230;42.588;23.358;2023-04-24T08:59:52;15.13;;;6.37;;
6394;SDS011;3230;42.588;23.358;2023-04-24T09:02:19;9.13;;;6.10;;
6394;SDS011;3230;42.588;23.358;2023-04-24T09:04:46;20.80;;;6.50;;
6394;SDS011;3230;42.588;23.358;2023-04-24T09:07:12;12.37;;;6.70;;
6394;SDS011;3230;42.588;23.358;2023-04-24T09:09:41;8.30;;;5.87;;
6394;SDS011;3230;42.588;23.358;2023-04-24T09:12:07;7.80;;;6.03;;
6394;SDS011;3230;42.588;23.358;2023-04-24T09:14:35;12.97;;;6.60;;
6394;SDS011;3230;42.588;23.358;2023-04-24T09:17:03;9.07;;;6.13;;
6394;SDS011;3230;42.588;23.358;2023-04-24T09:19:28;9.73;;;6.37;;
6394;SDS011;3230;42.588;23.358;2023-04-24T09:21:54;8.30;;;6.47;;
6394;SDS011;3230;42.588;23.358;2023-04-24T09:24:20;10.03;;;5.17;;
6394;SDS011;3230;42.588;23.358;2023-04-24T09:26:55;10.03;;;5.80;;
6394;SDS011;3230;42.588;23.358;2023-04-24T09:29:26;8.23;;;5.53;;
6394;SDS011;3230;42.588;23.358;2023-04-24T09:31:52;23.37;;;6.77;;
6394;SDS011;3230;42.588;23.358;2023-04-24T09:34:21;9.13;;;5.47;;
6394;SDS011;3230;42.588;23.358;2023-04-24T09:36:48;7.10;;;5.80;;
6394;SDS011;3230;42.588;23.358;2023-04-24T09:39:15;29.27;;;7.57;;
6394;SDS011;3230;42.588;23.358;2023-04-24T09:41:45;8.57;;;5.87;;
6394;SDS011;3230;42.588;23.358;2023-04-24T09:44:18;14.53;;;5.77;;
6394;SDS011;3230;42.588;23.358;2023-04-24T09:46:48;9.27;;;5.03;;
6394;SDS011;3230;42.588;23.358;2023-04-24T09:49:21;11.13;;;5.77;;
6394;SDS011;3230;42.588;23.358;2023-04-24T09:51:48;9.20;;;5.87;;
6394;SDS011;3230;42.588;23.358;2023-04-24T09:54:14;6.97;;;5.03;;
6394;SDS011;3230;42.588;23.358;2023-04-24T09:56:44;8.47;;;5.00;;
6394;SDS011;3230;42.588;23.358;2023-04-24T09:59:12;8.00;;;4.90;;
6394;SDS011;3230;42.588;23.358;2023-04-24T10:01:39;6.10;;;5.50;;
6394;SDS011;3230;42.588;23.358;2023-04-24T10:04:14;6.53;;;4.47;;
6394;SDS011;3230;42.588;23.358;2023-04-24T10:06:42;7.53;;;4.03;;
6394;SDS011;3230;42.588;23.358;2023-04-24T10:09:08;7.27;;;4.90;;
6394;SDS011;3230;42.588;23.358;2023-04-24T10:11:36;6.20;;;5.10;;
6394;SDS011;3230;42.588;23.358;2023-04-24T10:14:02;8.20;;;5.60;;
6394;SDS011;3230;42.588;23.358;2023-04-24T10:16:28;10.57;;;5.60;;
6394;SDS011;3230;42.588;23.358;2023-04-24T10:18:56;7.30;;;5.33;;
6394;SDS011;3230;42.588;23.358;2023-04-24T10:21:24;7.30;;;5.00;;
6394;SDS011;3230;42.588;23.358;2023-04-24T10:23:51;7.87;;;4.50;;
6394;SDS011;3230;42.588;23.358;2023-04-24T10:26:18;7.63;;;4.80;;
6394;SDS011;3230;42.588;23.358;2023-04-24T10:28:44;7.73;;;4.60;;
6394;SDS011;3230;42.588;23.358;2023-04-24T10:31:11;5.30;;;4.67;;
6394;SDS011;3230;42.588;23.358;2023-04-24T10:33:38;6.57;;;5.07;;
6394;SDS011;3230;42.588;23.358;2023-04-24T10:36:11;14.87;;;5.27;;
6394;SDS011;3230;42.588;23.358;2023-04-24T10:38:40;10.57;;;5.57;;
6394;SDS011;3230;42.588;23.358;2023-04-24T10:41:12;14.10;;;5.50;;
6394;SDS011;3230;42.588;23.358;2023-04-24T10:43:44;6.33;;;4.57;;
6394;SDS011;3230;42.588;23.358;2023-04-24T10:46:10;52.00;;;9.10;;
6394;SDS011;3230;42.588;23.358;2023-04-24T10:48:44;6.20;;;4.20;;
6394;SDS011;3230;42.588;23.358;2023-04-24T10:51:21;6.03;;;4.00;;
6394;SDS011;3230;42.588;23.358;2023-04-24T10:53:47;5.67;;;3.90;;
6394;SDS011;3230;42.588;23.358;2023-04-24T10:56:15;4.67;;;4.00;;
6394;SDS011;3230;42.588;23.358;2023-04-24T10:58:42;9.00;;;3.90;;
6394;SDS011;3230;42.588;23.358;2023-04-24T11:01:32;10.37;;;4.80;;
6394;SDS011;3230;42.588;23.358;2023-04-24T11:04:01;7.20;;;4.83;;
6394;SDS011;3230;42.588;23.358;2023-04-24T11:06:30;6.37;;;4.30;;
6394;SDS011;3230;42.588;23.358;2023-04-24T11:09:04;6.63;;;4.23;;
6394;SDS011;3230;42.588;23.358;2023-04-24T11:11:37;6.67;;;4.90;;
6394;SDS011;3230;42.588;23.358;2023-04-24T11:14:05;11.60;;;5.10;;
6394;SDS011;3230;42.588;23.358;2023-04-24T11:19:01;6.10;;;4.30;;
6394;SDS011;3230;42.588;23.358;2023-04-24T11:21:32;5.80;;;4.40;;
6394;SDS011;3230;42.588;23.358;2023-04-24T11:27:04;5.53;;;4.70;;
6394;SDS011;3230;42.588;23.358;2023-04-24T11:29:40;12.10;;;4.70;;
6394;SDS011;3230;42.588;23.358;2023-04-24T11:32:15;4.53;;;4.13;;
6394;SDS011;3230;42.588;23.358;2023-04-24T11:34:54;4.80;;;3.40;;
6394;SDS011;3230;42.588;23.358;2023-04-24T11:37:32;7.97;;;3.80;;
6394;SDS011;3230;42.588;23.358;2023-04-24T11:40:02;4.73;;;3.80;;
6394;SDS011;3230;42.588;23.358;2023-04-24T11:42:36;7.33;;;4.50;;
6394;SDS011;3230;42.588;23.358;2023-04-24T11:45:07;8.40;;;5.60;;
6394;SDS011;3230;42.588;23.358;2023-04-24T11:47:32;8.57;;;5.90;;
6394;SDS011;3230;42.588;23.358;2023-04-24T11:50:02;7.00;;;5.27;;
6394;SDS011;3230;42.588;23.358;2023-04-24T11:52:29;7.57;;;5.60;;
6394;SDS011;3230;42.588;23.358;2023-04-24T11:54:55;7.93;;;6.53;;
6394;SDS011;3230;42.588;23.358;2023-04-24T11:57:24;11.87;;;7.00;;
6394;SDS011;3230;42.588;23.358;2023-04-24T11:59:53;9.00;;;6.50;;
6394;SDS011;3230;42.588;23.358;2023-04-24T12:02:20;9.10;;;5.80;;
6394;SDS011;3230;42.588;23.358;2023-04-24T12:04:50;6.60;;;5.90;;
6394;SDS011;3230;42.588;23.358;2023-04-24T12:07:16;8.60;;;6.40;;
6394;SDS011;3230;42.588;23.358;2023-04-24T12:12:07;11.20;;;7.70;;
6394;SDS011;3230;42.588;23.358;2023-04-24T12:14:41;7.73;;;6.90;;
6394;SDS011;3230;42.588;23.358;2023-04-24T12:17:10;8.63;;;6.90;;
6394;SDS011;3230;42.588;23.358;2023-04-24T12:19:35;9.97;;;6.40;;
6394;SDS011;3230;42.588;23.358;2023-04-24T12:22:02;9.53;;;6.80;;
6394;SDS011;3230;42.588;23.358;2023-04-24T12:24:30;13.23;;;6.80;;
6394;SDS011;3230;42.588;23.358;2023-04-24T12:26:56;12.40;;;7.10;;
6394;SDS011;3230;42.588;23.358;2023-04-24T12:29:23;9.37;;;6.07;;
6394;SDS011;3230;42.588;23.358;2023-04-24T12:31:50;8.17;;;5.83;;
6394;SDS011;3230;42.588;23.358;2023-04-24T12:34:17;12.83;;;8.10;;
6394;SDS011;3230;42.588;23.358;2023-04-24T12:36:43;19.13;;;10.10;;
6394;SDS011;3230;42.588;23.358;2023-04-24T12:39:14;12.73;;;6.30;;
6394;SDS011;3230;42.588;23.358;2023-04-24T12:41:50;6.93;;;5.30;;
6394;SDS011;3230;42.588;23.358;2023-04-24T12:44:16;9.33;;;6.70;;
6394;SDS011;3230;42.588;23.358;2023-04-24T12:46:42;12.30;;;7.47;;
6394;SDS011;3230;42.588;23.358;2023-04-24T12:49:07;8.27;;;6.10;;
6394;SDS011;3230;42.588;23.358;2023-04-24T12:51:32;10.10;;;6.60;;
6394;SDS011;3230;42.588;23.358;2023-04-24T12:53:58;9.43;;;6.77;;
6394;SDS011;3230;42.588;23.358;2023-04-24T12:56:23;11.33;;;8.00;;
6394;SDS011;3230;42.588;23.358;2023-04-24T12:58:49;9.90;;;7.80;;
6394;SDS011;3230;42.588;23.358;2023-04-24T13:01:16;11.77;;;9.77;;
6394;SDS011;3230;42.588;23.358;2023-04-24T13:03:41;16.10;;;11.00;;
6394;SDS011;3230;42.588;23.358;2023-04-24T13:06:08;18.53;;;8.50;;
6394;SDS011;3230;42.588;23.358;2023-04-24T13:08:33;11.73;;;8.00;;
6394;SDS011;3230;42.588;23.358;2023-04-24T13:10:59;10.03;;;7.20;;
6394;SDS011;3230;42.588;23.358;2023-04-24T13:13:24;11.30;;;7.73;;
6394;SDS011;3230;42.588;23.358;2023-04-24T13:15:50;11.27;;;6.83;;
6394;SDS011;3230;42.588;23.358;2023-04-24T13:18:15;9.20;;;7.20;;
6394;SDS011;3230;42.588;23.358;2023-04-24T13:20:41;15.03;;;9.83;;
6394;SDS011;3230;42.588;23.358;2023-04-24T13:23:06;13.87;;;7.93;;
6394;SDS011;3230;42.588;23.358;2023-04-24T13:25:34;10.67;;;7.13;;
6394;SDS011;3230;42.588;23.358;2023-04-24T13:28:00;12.50;;;7.77;;
6394;SDS011;3230;42.588;23.358;2023-04-24T13:30:25;10.67;;;6.40;;
6394;SDS011;3230;42.588;23.358;2023-04-24T13:32:51;7.83;;;5.73;;
6394;SDS011;3230;42.588;23.358;2023-04-24T13:35:16;9.23;;;6.53;;
6394;SDS011;3230;42.588;23.358;2023-04-24T13:37:42;14.30;;;9.10;;
6394;SDS011;3230;42.588;23.358;2023-04-24T13:40:07;11.23;;;7.43;;
6394;SDS011;3230;42.588;23.358;2023-04-24T13:42:34;9.03;;;7.20;;
6394;SDS011;3230;42.588;23.358;2023-04-24T13:44:59;8.57;;;6.07;;
6394;SDS011;3230;42.588;23.358;2023-04-24T13:47:25;8.70;;;6.97;;
6394;SDS011;3230;42.588;23.358;2023-04-24T13:49:50;8.97;;;6.00;;
6394;SDS011;3230;42.588;23.358;2023-04-24T13:52:16;9.50;;;7.07;;
6394;SDS011;3230;42.588;23.358;2023-04-24T13:54:42;14.20;;;9.77;;
6394;SDS011;3230;42.588;23.358;2023-04-24T13:57:07;17.67;;;9.83;;
6394;SDS011;3230;42.588;23.358;2023-04-24T13:59:32;12.70;;;8.93;;
6394;SDS011;3230;42.588;23.358;2023-04-24T14:01:58;15.50;;;9.70;;
6394;SDS011;3230;42.588;23.358;2023-04-24T14:04:23;22.47;;;13.90;;
6394;SDS011;3230;42.588;23.358;2023-04-24T14:06:49;17.27;;;11.20;;
6394;SDS011;3230;42.588;23.358;2023-04-24T14:09:14;16.07;;;8.83;;
6394;SDS011;3230;42.588;23.358;2023-04-24T14:11:40;14.77;;;8.20;;
6394;SDS011;3230;42.588;23.358;2023-04-24T14:14:05;9.90;;;7.40;;
6394;SDS011;3230;42.588;23.358;2023-04-24T14:16:31;10.43;;;7.20;;
6394;SDS011;3230;42.588;23.358;2023-04-24T14:18:56;7.33;;;5.37;;
6394;SDS011;3230;42.588;23.358;2023-04-24T14:21:22;6.37;;;4.93;;
6394;SDS011;3230;42.588;23.358;2023-04-24T14:23:47;4.20;;;3.80;;
6394;SDS011;3230;42.588;23.358;2023-04-24T14:26:12;6.97;;;4.50;;
6394;SDS011;3230;42.588;23.358;2023-04-24T14:28:38;7.03;;;4.50;;
6394;SDS011;3230;42.588;23.358;2023-04-24T14:31:04;8.00;;;4.40;;
6394;SDS011;3230;42.588;23.358;2023-04-24T14:33:29;6.40;;;4.30;;
6394;SDS011;3230;42.588;23.358;2023-04-24T14:35:55;5.53;;;4.37;;
6394;SDS011;3230;42.588;23.358;2023-04-24T14:38:20;7.70;;;5.60;;
6394;SDS011;3230;42.588;23.358;2023-04-24T14:40:46;8.60;;;6.13;;
6394;SDS011;3230;42.588;23.358;2023-04-24T14:43:12;14.17;;;5.90;;
6394;SDS011;3230;42.588;23.358;2023-04-24T14:45:37;9.30;;;6.37;;
6394;SDS011;3230;42.588;23.358;2023-04-24T14:48:03;14.53;;;7.10;;
6394;SDS011;3230;42.588;23.358;2023-04-24T14:50:29;7.60;;;6.00;;
6394;SDS011;3230;42.588;23.358;2023-04-24T14:52:55;11.03;;;5.70;;
6394;SDS011;3230;42.588;23.358;2023-04-24T14:55:22;14.13;;;8.80;;
6394;SDS011;3230;42.588;23.358;2023-04-24T14:57:48;16.70;;;9.70;;
6394;SDS011;3230;42.588;23.358;2023-04-24T15:00:14;10.30;;;7.00;;